sensor_id;sensor_type;location;lat;lon;timestamp;temperature;humidity
40932;DHT22;36257;46.052;12.540;2023-03-31T00:00:44;11.60;99.90
40932;DHT22;36257;46.052;12.540;2023-03-31T00:03:11;11.50;99.90
40932;DHT22;36257;46.052;12.540;2023-03-31T00:05:37;11.60;99.90
40932;DHT22;36257;46.052;12.540;2023-03-31T00:08:03;11.60;99.90
40932;DHT22;36257;46.052;12.540;2023-03-31T00:10:33;11.60;99.90
40932;DHT22;36257;46.052;12.540;2023-03-31T00:12:59;11.50;99.90
40932;DHT22;36257;46.052;12.540;2023-03-31T00:15:26;11.50;99.90
40932;DHT22;36257;46.052;12.540;2023-03-31T00:17:52;11.50;99.90
40932;DHT22;36257;46.052;12.540;2023-03-31T00:20:18;11.60;99.90
40932;DHT22;36257;46.052;12.540;2023-03-31T00:22:44;11.60;99.90
40932;DHT22;36257;46.052;12.540;2023-03-31T00:25:14;11.60;99.90
40932;DHT22;36257;46.052;12.540;2023-03-31T00:27:42;11.60;99.90
40932;DHT22;36257;46.052;12.540;2023-03-31T00:30:09;11.50;99.90
40932;DHT22;36257;46.052;12.540;2023-03-31T00:32:35;11.60;99.90
40932;DHT22;36257;46.052;12.540;2023-03-31T00:35:00;11.60;99.90
40932;DHT22;36257;46.052;12.540;2023-03-31T00:37:28;11.50;99.90
40932;DHT22;36257;46.052;12.540;2023-03-31T00:39:54;11.60;99.90
40932;DHT22;36257;46.052;12.540;2023-03-31T00:42:21;11.50;99.90
40932;DHT22;36257;46.052;12.540;2023-03-31T00:48:12;11.50;99.90
40932;DHT22;36257;46.052;12.540;2023-03-31T00:50:49;11.50;99.90
40932;DHT22;36257;46.052;12.540;2023-03-31T00:53:18;11.50;99.90
40932;DHT22;36257;46.052;12.540;2023-03-31T00:55:49;11.60;99.90
40932;DHT22;36257;46.052;12.540;2023-03-31T00:58:16;11.50;99.90
40932;DHT22;36257;46.052;12.540;2023-03-31T01:00:48;11.60;99.90
40932;DHT22;36257;46.052;12.540;2023-03-31T01:03:15;11.60;99.90
40932;DHT22;36257;46.052;12.540;2023-03-31T01:05:46;11.60;99.90
40932;DHT22;36257;46.052;12.540;2023-03-31T01:08:13;11.60;99.90
40932;DHT22;36257;46.052;12.540;2023-03-31T01:10:44;11.60;99.90
40932;DHT22;36257;46.052;12.540;2023-03-31T01:13:12;11.60;99.90
40932;DHT22;36257;46.052;12.540;2023-03-31T01:15:41;11.60;99.90
40932;DHT22;36257;46.052;12.540;2023-03-31T01:18:08;11.60;99.90
40932;DHT22;36257;46.052;12.540;2023-03-31T01:40:48;11.50;99.90
40932;DHT22;36257;46.052;12.540;2023-03-31T01:43:32;11.60;99.90
40932;DHT22;36257;46.052;12.540;2023-03-31T01:54:29;11.50;99.90
40932;DHT22;36257;46.052;12.540;2023-03-31T01:57:02;11.50;99.90
40932;DHT22;36257;46.052;12.540;2023-03-31T01:59:51;11.50;99.90
40932;DHT22;36257;46.052;12.540;2023-03-31T02:02:35;11.50;99.90
40932;DHT22;36257;46.052;12.540;2023-03-31T02:05:09;11.50;99.90
40932;DHT22;36257;46.052;12.540;2023-03-31T02:07:48;11.50;99.90
40932;DHT22;36257;46.052;12.540;2023-03-31T02:10:16;11.50;99.90
40932;DHT22;36257;46.052;12.540;2023-03-31T02:12:43;11.60;99.90
40932;DHT22;36257;46.052;12.540;2023-03-31T02:15:13;11.60;99.90
40932;DHT22;36257;46.052;12.540;2023-03-31T02:17:41;11.50;99.90
40932;DHT22;36257;46.052;12.540;2023-03-31T02:20:11;11.50;99.90
40932;DHT22;36257;46.052;12.540;2023-03-31T02:22:42;11.50;99.90
40932;DHT22;36257;46.052;12.540;2023-03-31T02:25:11;11.50;99.90
40932;DHT22;36257;46.052;12.540;2023-03-31T02:27:41;11.50;99.90
40932;DHT22;36257;46.052;12.540;2023-03-31T02:30:09;11.40;99.90
40932;DHT22;36257;46.052;12.540;2023-03-31T02:32:38;11.40;99.90
40932;DHT22;36257;46.052;12.540;2023-03-31T02:35:06;11.40;99.90
40932;DHT22;36257;46.052;12.540;2023-03-31T02:37:33;11.40;99.90
40932;DHT22;36257;46.052;12.540;2023-03-31T02:40:04;11.40;99.90
40932;DHT22;36257;46.052;12.540;2023-03-31T02:42:33;11.40;99.90
40932;DHT22;36257;46.052;12.540;2023-03-31T02:45:06;11.40;99.90
40932;DHT22;36257;46.052;12.540;2023-03-31T02:47:51;11.30;99.90
40932;DHT22;36257;46.052;12.540;2023-03-31T02:50:18;11.20;99.90
40932;DHT22;36257;46.052;12.540;2023-03-31T02:52:51;11.20;99.90
40932;DHT22;36257;46.052;12.540;2023-03-31T02:55:37;11.20;99.90
40932;DHT22;36257;46.052;12.540;2023-03-31T02:58:40;11.20;99.90
40932;DHT22;36257;46.052;12.540;2023-03-31T03:15:37;11.20;99.90
40932;DHT22;36257;46.052;12.540;2023-03-31T03:18:00;11.10;99.90
40932;DHT22;36257;46.052;12.540;2023-03-31T03:20:26;11.10;99.90
40932;DHT22;36257;46.052;12.540;2023-03-31T03:22:51;11.10;99.90
40932;DHT22;36257;46.052;12.540;2023-03-31T03:25:17;11.10;99.90
40932;DHT22;36257;46.052;12.540;2023-03-31T03:27:44;11.20;99.90
40932;DHT22;36257;46.052;12.540;2023-03-31T03:30:11;11.20;99.90
40932;DHT22;36257;46.052;12.540;2023-03-31T03:32:37;11.20;99.90
40932;DHT22;36257;46.052;12.540;2023-03-31T03:35:05;11.20;99.90
40932;DHT22;36257;46.052;12.540;2023-03-31T03:37:31;11.20;99.90
40932;DHT22;36257;46.052;12.540;2023-03-31T03:39:57;11.20;99.90
40932;DHT22;36257;46.052;12.540;2023-03-31T03:42:22;11.20;99.90
40932;DHT22;36257;46.052;12.540;2023-03-31T03:44:48;11.20;99.90
40932;DHT22;36257;46.052;12.540;2023-03-31T03:47:14;11.20;99.90
40932;DHT22;36257;46.052;12.540;2023-03-31T03:49:40;11.20;99.90
40932;DHT22;36257;46.052;12.540;2023-03-31T03:52:06;11.10;99.90
40932;DHT22;36257;46.052;12.540;2023-03-31T03:54:32;11.20;99.90
40932;DHT22;36257;46.052;12.540;2023-03-31T03:56:58;11.10;99.90
40932;DHT22;36257;46.052;12.540;2023-03-31T03:59:23;11.00;99.90
40932;DHT22;36257;46.052;12.540;2023-03-31T04:01:49;11.00;99.90
40932;DHT22;36257;46.052;12.540;2023-03-31T04:04:15;11.00;99.90
40932;DHT22;36257;46.052;12.540;2023-03-31T04:06:41;11.00;99.90
40932;DHT22;36257;46.052;12.540;2023-03-31T04:09:07;11.00;99.90
40932;DHT22;36257;46.052;12.540;2023-03-31T04:11:33;11.00;99.90
40932;DHT22;36257;46.052;12.540;2023-03-31T04:13:58;11.00;99.90
40932;DHT22;36257;46.052;12.540;2023-03-31T04:16:24;11.10;99.90
40932;DHT22;36257;46.052;12.540;2023-03-31T04:18:51;11.10;99.90
40932;DHT22;36257;46.052;12.540;2023-03-31T04:21:21;11.10;99.90
40932;DHT22;36257;46.052;12.540;2023-03-31T04:23:51;11.10;99.90
40932;DHT22;36257;46.052;12.540;2023-03-31T04:26:23;11.10;99.90
40932;DHT22;36257;46.052;12.540;2023-03-31T04:28:56;11.20;99.90
40932;DHT22;36257;46.052;12.540;2023-03-31T04:31:25;11.20;99.90
40932;DHT22;36257;46.052;12.540;2023-03-31T04:33:54;11.20;99.90
40932;DHT22;36257;46.052;12.540;2023-03-31T04:36:20;11.20;99.90
40932;DHT22;36257;46.052;12.540;2023-03-31T04:38:49;11.10;99.90
40932;DHT22;36257;46.052;12.540;2023-03-31T04:41:22;11.10;99.90
40932;DHT22;36257;46.052;12.540;2023-03-31T04:43:48;11.20;99.90
40932;DHT22;36257;46.052;12.540;2023-03-31T04:46:14;11.20;99.90
40932;DHT22;36257;46.052;12.540;2023-03-31T04:48:40;11.20;99.90
40932;DHT22;36257;46.052;12.540;2023-03-31T04:51:06;11.10;99.90
40932;DHT22;36257;46.052;12.540;2023-03-31T04:53:33;11.10;99.90
40932;DHT22;36257;46.052;12.540;2023-03-31T04:55:59;11.20;99.90
40932;DHT22;36257;46.052;12.540;2023-03-31T04:58:26;11.20;99.90
40932;DHT22;36257;46.052;12.540;2023-03-31T05:00:52;11.30;99.90
40932;DHT22;36257;46.052;12.540;2023-03-31T05:03:18;11.20;99.90
40932;DHT22;36257;46.052;12.540;2023-03-31T05:05:44;11.20;99.90
40932;DHT22;36257;46.052;12.540;2023-03-31T05:08:09;11.20;99.90
40932;DHT22;36257;46.052;12.540;2023-03-31T05:10:35;11.20;99.90
40932;DHT22;36257;46.052;12.540;2023-03-31T05:13:01;11.20;99.90
40932;DHT22;36257;46.052;12.540;2023-03-31T05:15:27;11.20;99.90
40932;DHT22;36257;46.052;12.540;2023-03-31T05:17:52;11.10;99.90
40932;DHT22;36257;46.052;12.540;2023-03-31T05:20:19;11.00;99.90
40932;DHT22;36257;46.052;12.540;2023-03-31T05:22:45;11.00;99.90
40932;DHT22;36257;46.052;12.540;2023-03-31T05:25:12;10.90;99.90
40932;DHT22;36257;46.052;12.540;2023-03-31T05:27:44;10.90;99.90
40932;DHT22;36257;46.052;12.540;2023-03-31T05:30:12;10.90;99.90
40932;DHT22;36257;46.052;12.540;2023-03-31T05:32:38;10.90;99.90
40932;DHT22;36257;46.052;12.540;2023-03-31T05:35:04;11.00;99.90
40932;DHT22;36257;46.052;12.540;2023-03-31T05:37:30;11.10;99.90
40932;DHT22;36257;46.052;12.540;2023-03-31T05:39:56;11.10;99.90
40932;DHT22;36257;46.052;12.540;2023-03-31T05:42:22;11.10;99.90
40932;DHT22;36257;46.052;12.540;2023-03-31T05:44:47;11.00;99.90
40932;DHT22;36257;46.052;12.540;2023-03-31T05:47:13;11.10;99.90
40932;DHT22;36257;46.052;12.540;2023-03-31T05:49:39;11.10;99.90
40932;DHT22;36257;46.052;12.540;2023-03-31T05:52:06;11.10;99.90
40932;DHT22;36257;46.052;12.540;2023-03-31T05:54:32;11.10;99.90
40932;DHT22;36257;46.052;12.540;2023-03-31T05:56:58;11.10;99.90
40932;DHT22;36257;46.052;12.540;2023-03-31T05:59:23;11.10;99.90
40932;DHT22;36257;46.052;12.540;2023-03-31T06:01:49;11.20;99.90
40932;DHT22;36257;46.052;12.540;2023-03-31T06:04:15;11.30;99.90
40932;DHT22;36257;46.052;12.540;2023-03-31T06:06:40;11.30;99.90
40932;DHT22;36257;46.052;12.540;2023-03-31T06:09:07;11.30;99.90
40932;DHT22;36257;46.052;12.540;2023-03-31T06:11:33;11.20;99.90
40932;DHT22;36257;46.052;12.540;2023-03-31T06:13:59;11.20;99.90
40932;DHT22;36257;46.052;12.540;2023-03-31T06:16:24;11.20;99.90
40932;DHT22;36257;46.052;12.540;2023-03-31T06:18:50;11.20;99.90
40932;DHT22;36257;46.052;12.540;2023-03-31T06:21:18;11.40;99.90
40932;DHT22;36257;46.052;12.540;2023-03-31T06:23:44;11.30;99.90
40932;DHT22;36257;46.052;12.540;2023-03-31T06:26:12;11.40;99.90
40932;DHT22;36257;46.052;12.540;2023-03-31T06:28:38;11.50;99.90
40932;DHT22;36257;46.052;12.540;2023-03-31T06:31:07;11.50;99.90
40932;DHT22;36257;46.052;12.540;2023-03-31T06:33:34;11.50;99.90
40932;DHT22;36257;46.052;12.540;2023-03-31T06:36:00;11.60;99.90
40932;DHT22;36257;46.052;12.540;2023-03-31T06:38:28;11.70;99.90
40932;DHT22;36257;46.052;12.540;2023-03-31T06:40:55;11.70;99.90
40932;DHT22;36257;46.052;12.540;2023-03-31T06:43:20;11.70;99.90
40932;DHT22;36257;46.052;12.540;2023-03-31T06:45:46;11.80;99.90
40932;DHT22;36257;46.052;12.540;2023-03-31T06:48:12;11.90;99.90
40932;DHT22;36257;46.052;12.540;2023-03-31T06:50:39;11.90;99.90
40932;DHT22;36257;46.052;12.540;2023-03-31T06:53:09;12.00;99.90
40932;DHT22;36257;46.052;12.540;2023-03-31T06:55:36;12.10;99.90
40932;DHT22;36257;46.052;12.540;2023-03-31T06:58:01;12.00;99.90
40932;DHT22;36257;46.052;12.540;2023-03-31T07:00:27;12.00;99.90
40932;DHT22;36257;46.052;12.540;2023-03-31T07:02:53;11.90;99.90
40932;DHT22;36257;46.052;12.540;2023-03-31T07:05:20;11.90;99.90
40932;DHT22;36257;46.052;12.540;2023-03-31T07:07:55;12.00;99.90
40932;DHT22;36257;46.052;12.540;2023-03-31T07:10:22;12.00;99.90
40932;DHT22;36257;46.052;12.540;2023-03-31T07:12:48;12.10;99.90
40932;DHT22;36257;46.052;12.540;2023-03-31T07:15:14;12.20;99.90
40932;DHT22;36257;46.052;12.540;2023-03-31T07:17:40;12.30;99.90
40932;DHT22;36257;46.052;12.540;2023-03-31T07:20:09;12.30;99.90
40932;DHT22;36257;46.052;12.540;2023-03-31T07:22:43;12.30;99.90
40932;DHT22;36257;46.052;12.540;2023-03-31T07:25:10;12.20;99.90
40932;DHT22;36257;46.052;12.540;2023-03-31T07:27:36;12.20;99.90
40932;DHT22;36257;46.052;12.540;2023-03-31T07:30:06;12.10;99.90
40932;DHT22;36257;46.052;12.540;2023-03-31T07:32:32;12.00;99.90
40932;DHT22;36257;46.052;12.540;2023-03-31T07:34:58;12.00;99.90
40932;DHT22;36257;46.052;12.540;2023-03-31T07:37:24;12.00;99.90
40932;DHT22;36257;46.052;12.540;2023-03-31T07:39:50;12.00;99.90
40932;DHT22;36257;46.052;12.540;2023-03-31T07:42:15;12.00;99.90
40932;DHT22;36257;46.052;12.540;2023-03-31T07:44:41;12.00;99.90
40932;DHT22;36257;46.052;12.540;2023-03-31T07:47:06;12.00;99.90
40932;DHT22;36257;46.052;12.540;2023-03-31T07:49:33;12.10;99.90
40932;DHT22;36257;46.052;12.540;2023-03-31T07:52:00;12.20;99.90
40932;DHT22;36257;46.052;12.540;2023-03-31T07:54:26;12.30;99.90
40932;DHT22;36257;46.052;12.540;2023-03-31T07:56:52;12.40;99.90
40932;DHT22;36257;46.052;12.540;2023-03-31T07:59:18;12.50;99.90
40932;DHT22;36257;46.052;12.540;2023-03-31T08:01:44;12.50;99.90
40932;DHT22;36257;46.052;12.540;2023-03-31T08:04:11;12.40;99.90
40932;DHT22;36257;46.052;12.540;2023-03-31T08:06:37;12.40;99.90
40932;DHT22;36257;46.052;12.540;2023-03-31T08:09:03;12.50;99.90
40932;DHT22;36257;46.052;12.540;2023-03-31T08:11:29;12.60;99.90
40932;DHT22;36257;46.052;12.540;2023-03-31T08:13:55;12.80;99.90
40932;DHT22;36257;46.052;12.540;2023-03-31T08:16:21;13.00;99.90
40932;DHT22;36257;46.052;12.540;2023-03-31T08:18:47;13.20;99.90
40932;DHT22;36257;46.052;12.540;2023-03-31T08:21:13;13.30;99.90
40932;DHT22;36257;46.052;12.540;2023-03-31T08:23:38;13.40;99.10
40932;DHT22;36257;46.052;12.540;2023-03-31T08:26:12;13.30;98.80
40932;DHT22;36257;46.052;12.540;2023-03-31T08:28:38;13.30;99.00
40932;DHT22;36257;46.052;12.540;2023-03-31T08:31:05;13.30;98.60
40932;DHT22;36257;46.052;12.540;2023-03-31T08:33:31;13.20;98.10
40932;DHT22;36257;46.052;12.540;2023-03-31T08:36:01;13.10;99.00
40932;DHT22;36257;46.052;12.540;2023-03-31T08:38:28;13.10;99.10
40932;DHT22;36257;46.052;12.540;2023-03-31T08:41:05;13.10;99.80
40932;DHT22;36257;46.052;12.540;2023-03-31T08:43:41;13.00;99.10
40932;DHT22;36257;46.052;12.540;2023-03-31T08:46:11;13.00;99.90
40932;DHT22;36257;46.052;12.540;2023-03-31T08:48:48;12.90;99.90
40932;DHT22;36257;46.052;12.540;2023-03-31T08:51:30;12.80;99.90
40932;DHT22;36257;46.052;12.540;2023-03-31T08:54:00;12.70;99.90
40932;DHT22;36257;46.052;12.540;2023-03-31T08:56:28;12.80;99.90
40932;DHT22;36257;46.052;12.540;2023-03-31T08:58:54;12.80;99.90
40932;DHT22;36257;46.052;12.540;2023-03-31T09:07:32;12.90;99.90
40932;DHT22;36257;46.052;12.540;2023-03-31T09:13:21;12.80;99.60
40932;DHT22;36257;46.052;12.540;2023-03-31T09:16:25;12.80;99.40
40932;DHT22;36257;46.052;12.540;2023-03-31T09:18:56;12.70;99.70
40932;DHT22;36257;46.052;12.540;2023-03-31T09:21:34;12.80;99.90
40932;DHT22;36257;46.052;12.540;2023-03-31T09:26:44;12.80;99.90
40932;DHT22;36257;46.052;12.540;2023-03-31T09:32:17;12.90;99.50
40932;DHT22;36257;46.052;12.540;2023-03-31T09:34:45;13.00;99.30
40932;DHT22;36257;46.052;12.540;2023-03-31T09:37:12;13.00;99.70
40932;DHT22;36257;46.052;12.540;2023-03-31T09:39:38;13.00;99.80
40932;DHT22;36257;46.052;12.540;2023-03-31T09:42:04;13.10;99.90
40932;DHT22;36257;46.052;12.540;2023-03-31T09:44:36;13.10;99.50
40932;DHT22;36257;46.052;12.540;2023-03-31T09:47:04;13.20;98.70
40932;DHT22;36257;46.052;12.540;2023-03-31T09:49:34;13.20;98.90
40932;DHT22;36257;46.052;12.540;2023-03-31T09:54:45;13.00;99.30
40932;DHT22;36257;46.052;12.540;2023-03-31T09:57:27;13.00;99.30
40932;DHT22;36257;46.052;12.540;2023-03-31T10:00:21;12.90;99.20
40932;DHT22;36257;46.052;12.540;2023-03-31T10:02:53;12.90;99.40
40932;DHT22;36257;46.052;12.540;2023-03-31T10:10:47;12.80;99.20
40932;DHT22;36257;46.052;12.540;2023-03-31T10:13:16;12.70;99.40
40932;DHT22;36257;46.052;12.540;2023-03-31T10:15:43;12.70;99.90
40932;DHT22;36257;46.052;12.540;2023-03-31T10:18:16;12.70;99.90
40932;DHT22;36257;46.052;12.540;2023-03-31T10:20:48;12.60;99.90
40932;DHT22;36257;46.052;12.540;2023-03-31T10:23:34;12.60;99.90
40932;DHT22;36257;46.052;12.540;2023-03-31T10:26:01;12.50;99.90
40932;DHT22;36257;46.052;12.540;2023-03-31T10:28:31;12.60;99.90
40932;DHT22;36257;46.052;12.540;2023-03-31T10:30:58;12.60;99.90
40932;DHT22;36257;46.052;12.540;2023-03-31T10:33:33;12.70;99.90
40932;DHT22;36257;46.052;12.540;2023-03-31T10:36:17;12.70;99.90
40932;DHT22;36257;46.052;12.540;2023-03-31T10:38:45;12.60;99.90
40932;DHT22;36257;46.052;12.540;2023-03-31T10:41:20;12.60;99.90
40932;DHT22;36257;46.052;12.540;2023-03-31T10:43:54;12.50;99.90
40932;DHT22;36257;46.052;12.540;2023-03-31T10:46:21;12.50;99.90
40932;DHT22;36257;46.052;12.540;2023-03-31T10:49:14;12.50;99.90
40932;DHT22;36257;46.052;12.540;2023-03-31T10:51:48;12.60;99.90
40932;DHT22;36257;46.052;12.540;2023-03-31T10:54:14;12.60;99.90
40932;DHT22;36257;46.052;12.540;2023-03-31T10:57:02;12.70;99.90
40932;DHT22;36257;46.052;12.540;2023-03-31T11:13:39;12.30;99.90
40932;DHT22;36257;46.052;12.540;2023-03-31T11:24:40;11.80;99.90
40932;DHT22;36257;46.052;12.540;2023-03-31T11:30:39;11.70;99.90
40932;DHT22;36257;46.052;12.540;2023-03-31T11:41:53;11.60;99.90
40932;DHT22;36257;46.052;12.540;2023-03-31T11:44:23;11.60;99.90
40932;DHT22;36257;46.052;12.540;2023-03-31T11:46:56;11.50;99.90
40932;DHT22;36257;46.052;12.540;2023-03-31T11:49:32;11.60;99.90
40932;DHT22;36257;46.052;12.540;2023-03-31T11:52:15;11.70;99.90
40932;DHT22;36257;46.052;12.540;2023-03-31T12:03:03;11.50;99.90
40932;DHT22;36257;46.052;12.540;2023-03-31T12:05:33;11.50;99.90
40932;DHT22;36257;46.052;12.540;2023-03-31T12:08:06;11.40;99.90
40932;DHT22;36257;46.052;12.540;2023-03-31T12:10:58;11.20;99.90
40932;DHT22;36257;46.052;12.540;2023-03-31T12:13:29;11.20;99.90
40932;DHT22;36257;46.052;12.540;2023-03-31T12:21:57;11.10;99.90
40932;DHT22;36257;46.052;12.540;2023-03-31T12:24:25;11.20;99.90
40932;DHT22;36257;46.052;12.540;2023-03-31T12:29:40;11.30;99.90
40932;DHT22;36257;46.052;12.540;2023-03-31T12:32:12;11.30;99.90
40932;DHT22;36257;46.052;12.540;2023-03-31T12:34:47;11.40;99.90
40932;DHT22;36257;46.052;12.540;2023-03-31T12:37:40;11.40;99.90
40932;DHT22;36257;46.052;12.540;2023-03-31T12:57:19;11.60;99.90
40932;DHT22;36257;46.052;12.540;2023-03-31T12:59:46;11.60;99.90
40932;DHT22;36257;46.052;12.540;2023-03-31T13:02:29;11.50;99.90
40932;DHT22;36257;46.052;12.540;2023-03-31T13:04:55;11.40;99.90
40932;DHT22;36257;46.052;12.540;2023-03-31T13:09:54;11.50;99.90
40932;DHT22;36257;46.052;12.540;2023-03-31T13:12:23;11.50;99.90
40932;DHT22;36257;46.052;12.540;2023-03-31T13:14:51;11.50;99.90
40932;DHT22;36257;46.052;12.540;2023-03-31T13:17:29;11.40;99.90
40932;DHT22;36257;46.052;12.540;2023-03-31T13:20:14;11.30;99.90
40932;DHT22;36257;46.052;12.540;2023-03-31T13:22:44;11.30;99.90
40932;DHT22;36257;46.052;12.540;2023-03-31T13:27:55;11.50;99.90
40932;DHT22;36257;46.052;12.540;2023-03-31T13:35:38;11.40;99.90
40932;DHT22;36257;46.052;12.540;2023-03-31T13:41:07;11.50;99.90
40932;DHT22;36257;46.052;12.540;2023-03-31T13:43:56;11.50;99.90
40932;DHT22;36257;46.052;12.540;2023-03-31T13:52:04;11.30;99.90
40932;DHT22;36257;46.052;12.540;2023-03-31T13:55:00;11.40;99.90
40932;DHT22;36257;46.052;12.540;2023-03-31T14:04:03;11.40;99.90
40932;DHT22;36257;46.052;12.540;2023-03-31T14:06:43;11.40;99.90
40932;DHT22;36257;46.052;12.540;2023-03-31T14:09:28;11.40;99.90
40932;DHT22;36257;46.052;12.540;2023-03-31T14:11:58;11.40;99.90
40932;DHT22;36257;46.052;12.540;2023-03-31T14:14:24;11.30;99.90
40932;DHT22;36257;46.052;12.540;2023-03-31T14:16:54;11.30;99.90
40932;DHT22;36257;46.052;12.540;2023-03-31T14:24:39;11.30;99.90
40932;DHT22;36257;46.052;12.540;2023-03-31T14:33:58;11.60;99.90
40932;DHT22;36257;46.052;12.540;2023-03-31T14:38:36;11.70;99.90
40932;DHT22;36257;46.052;12.540;2023-03-31T14:41:02;11.80;99.90
40932;DHT22;36257;46.052;12.540;2023-03-31T14:43:34;11.80;99.90
40932;DHT22;36257;46.052;12.540;2023-03-31T14:46:03;11.70;99.90
40932;DHT22;36257;46.052;12.540;2023-03-31T14:48:36;11.80;99.90
40932;DHT22;36257;46.052;12.540;2023-03-31T14:51:08;11.80;99.90
40932;DHT22;36257;46.052;12.540;2023-03-31T14:53:35;11.80;99.90
40932;DHT22;36257;46.052;12.540;2023-03-31T14:56:11;11.80;99.90
40932;DHT22;36257;46.052;12.540;2023-03-31T14:58:43;11.80;99.90
40932;DHT22;36257;46.052;12.540;2023-03-31T15:01:14;11.80;99.90
40932;DHT22;36257;46.052;12.540;2023-03-31T15:03:42;11.90;99.90
40932;DHT22;36257;46.052;12.540;2023-03-31T15:06:09;11.90;99.90
40932;DHT22;36257;46.052;12.540;2023-03-31T15:08:36;11.90;99.90
40932;DHT22;36257;46.052;12.540;2023-03-31T15:11:23;11.90;99.90
40932;DHT22;36257;46.052;12.540;2023-03-31T15:13:55;11.80;99.90
40932;DHT22;36257;46.052;12.540;2023-03-31T15:19:04;11.90;99.90
40932;DHT22;36257;46.052;12.540;2023-03-31T15:21:33;11.90;99.90
40932;DHT22;36257;46.052;12.540;2023-03-31T15:24:03;11.80;99.90
40932;DHT22;36257;46.052;12.540;2023-03-31T15:26:35;11.70;99.90
40932;DHT22;36257;46.052;12.540;2023-03-31T15:29:10;11.50;99.90
40932;DHT22;36257;46.052;12.540;2023-03-31T15:31:38;11.50;99.90
40932;DHT22;36257;46.052;12.540;2023-03-31T15:34:14;11.60;99.90
40932;DHT22;36257;46.052;12.540;2023-03-31T15:36:43;11.70;99.90
40932;DHT22;36257;46.052;12.540;2023-03-31T15:39:10;11.70;99.90
40932;DHT22;36257;46.052;12.540;2023-03-31T15:41:36;11.70;99.90
40932;DHT22;36257;46.052;12.540;2023-03-31T15:44:05;11.60;99.90
40932;DHT22;36257;46.052;12.540;2023-03-31T15:49:02;11.60;99.90
40932;DHT22;36257;46.052;12.540;2023-03-31T15:51:35;11.60;99.90
40932;DHT22;36257;46.052;12.540;2023-03-31T15:54:01;11.60;99.90
40932;DHT22;36257;46.052;12.540;2023-03-31T15:56:41;11.60;99.90
40932;DHT22;36257;46.052;12.540;2023-03-31T15:59:24;11.70;99.90
40932;DHT22;36257;46.052;12.540;2023-03-31T16:01:51;11.70;99.90
40932;DHT22;36257;46.052;12.540;2023-03-31T16:04:17;11.70;99.90
40932;DHT22;36257;46.052;12.540;2023-03-31T16:07:04;11.70;99.90
40932;DHT22;36257;46.052;12.540;2023-03-31T16:10:29;11.70;99.90
40932;DHT22;36257;46.052;12.540;2023-03-31T16:12:42;11.70;99.90
40932;DHT22;36257;46.052;12.540;2023-03-31T16:15:19;11.70;99.90
40932;DHT22;36257;46.052;12.540;2023-03-31T16:17:52;11.80;99.90
40932;DHT22;36257;46.052;12.540;2023-03-31T16:20:24;11.80;99.90
40932;DHT22;36257;46.052;12.540;2023-03-31T16:22:54;11.80;99.90
40932;DHT22;36257;46.052;12.540;2023-03-31T16:25:22;11.70;99.90
40932;DHT22;36257;46.052;12.540;2023-03-31T16:28:12;11.70;99.90
40932;DHT22;36257;46.052;12.540;2023-03-31T16:30:41;11.70;99.90
40932;DHT22;36257;46.052;12.540;2023-03-31T16:35:40;11.60;99.90
40932;DHT22;36257;46.052;12.540;2023-03-31T16:38:07;11.60;99.90
40932;DHT22;36257;46.052;12.540;2023-03-31T16:40:38;11.50;99.90
40932;DHT22;36257;46.052;12.540;2023-03-31T16:45:44;11.60;99.90
40932;DHT22;36257;46.052;12.540;2023-03-31T16:48:11;11.50;99.90
40932;DHT22;36257;46.052;12.540;2023-03-31T16:50:37;11.50;99.90
40932;DHT22;36257;46.052;12.540;2023-03-31T16:53:03;11.40;99.90
40932;DHT22;36257;46.052;12.540;2023-03-31T16:55:29;11.40;99.90
40932;DHT22;36257;46.052;12.540;2023-03-31T16:57:57;11.40;99.90
40932;DHT22;36257;46.052;12.540;2023-03-31T17:00:30;11.50;99.90
40932;DHT22;36257;46.052;12.540;2023-03-31T17:02:57;11.50;99.90
40932;DHT22;36257;46.052;12.540;2023-03-31T17:05:23;11.50;99.90
40932;DHT22;36257;46.052;12.540;2023-03-31T17:07:50;11.60;99.90
40932;DHT22;36257;46.052;12.540;2023-03-31T17:10:16;11.60;99.90
40932;DHT22;36257;46.052;12.540;2023-03-31T17:12:41;11.50;99.90
40932;DHT22;36257;46.052;12.540;2023-03-31T17:15:08;11.40;99.90
40932;DHT22;36257;46.052;12.540;2023-03-31T17:17:33;11.50;99.90
40932;DHT22;36257;46.052;12.540;2023-03-31T17:19:59;11.50;99.90
40932;DHT22;36257;46.052;12.540;2023-03-31T17:22:25;11.40;99.90
40932;DHT22;36257;46.052;12.540;2023-03-31T17:24:51;11.40;99.90
40932;DHT22;36257;46.052;12.540;2023-03-31T17:27:21;11.30;99.90
40932;DHT22;36257;46.052;12.540;2023-03-31T17:29:47;11.50;99.90
40932;DHT22;36257;46.052;12.540;2023-03-31T17:32:12;11.60;99.90
40932;DHT22;36257;46.052;12.540;2023-03-31T17:34:39;11.50;99.90
40932;DHT22;36257;46.052;12.540;2023-03-31T17:37:05;11.50;99.90
40932;DHT22;36257;46.052;12.540;2023-03-31T17:39:31;11.50;99.90
40932;DHT22;36257;46.052;12.540;2023-03-31T17:41:57;11.50;99.90
40932;DHT22;36257;46.052;12.540;2023-03-31T17:44:23;11.40;99.90
40932;DHT22;36257;46.052;12.540;2023-03-31T17:46:48;11.30;99.90
40932;DHT22;36257;46.052;12.540;2023-03-31T17:49:15;11.40;99.90
40932;DHT22;36257;46.052;12.540;2023-03-31T17:51:42;11.30;99.90
40932;DHT22;36257;46.052;12.540;2023-03-31T17:54:09;11.30;99.90
40932;DHT22;36257;46.052;12.540;2023-03-31T17:56:36;11.30;99.90
40932;DHT22;36257;46.052;12.540;2023-03-31T17:59:02;11.30;99.90
40932;DHT22;36257;46.052;12.540;2023-03-31T18:01:28;11.30;99.90
40932;DHT22;36257;46.052;12.540;2023-03-31T18:03:55;11.40;99.90
40932;DHT22;36257;46.052;12.540;2023-03-31T18:06:21;11.30;99.90
40932;DHT22;36257;46.052;12.540;2023-03-31T18:08:47;11.30;99.90
40932;DHT22;36257;46.052;12.540;2023-03-31T18:11:13;11.30;99.90
40932;DHT22;36257;46.052;12.540;2023-03-31T18:13:39;11.40;99.90
40932;DHT22;36257;46.052;12.540;2023-03-31T18:16:07;11.40;99.90
40932;DHT22;36257;46.052;12.540;2023-03-31T18:18:34;11.30;99.90
40932;DHT22;36257;46.052;12.540;2023-03-31T18:21:05;11.30;99.90
40932;DHT22;36257;46.052;12.540;2023-03-31T18:23:32;11.30;99.90
40932;DHT22;36257;46.052;12.540;2023-03-31T18:25:58;11.30;99.90
40932;DHT22;36257;46.052;12.540;2023-03-31T18:28:24;11.30;99.90
40932;DHT22;36257;46.052;12.540;2023-03-31T18:30:50;11.30;99.90
40932;DHT22;36257;46.052;12.540;2023-03-31T18:33:15;11.30;99.90
40932;DHT22;36257;46.052;12.540;2023-03-31T18:35:43;11.40;99.90
40932;DHT22;36257;46.052;12.540;2023-03-31T18:38:08;11.40;99.90